Time;durP1;ratioP1;P1;durP2;ratioP2;P2;SDS_P1;SDS_P2;PMS_P1;PMS_P2;Temp;Humidity;BMP_temperature;BMP_pressure;BME280_temperature;BME280_humidity;BME280_pressure;Samples;Min_cycle;Max_cycle;Signal;HPM_P1;HPM_P2
2023/03/16 00:00:18;;;;;;;3.60;2.70;;;7.90;99.90;;;;;;5016173;28;20823;-71
2023/03/16 00:02:44;;;;;;;3.80;2.80;;;7.90;99.90;;;;;;5048027;28;20423;-71
2023/03/16 00:05:13;;;;;;;2.50;2.03;;;7.90;99.90;;;;;;5015968;28;20439;-71
2023/03/16 00:07:40;;;;;;;3.57;2.70;;;7.90;99.90;;;;;;5028325;28;20953;-71
2023/03/16 00:10:08;;;;;;;3.00;2.43;;;7.90;99.90;;;;;;4995380;28;20440;-71
2023/03/16 00:12:36;;;;;;;5.03;2.87;;;7.90;99.90;;;;;;4996596;28;20414;-71
2023/03/16 00:15:03;;;;;;;6.60;2.37;;;7.90;99.90;;;;;;4995269;28;20875;-71
2023/03/16 00:17:29;;;;;;;3.67;2.70;;;7.90;99.90;;;;;;5011629;28;20414;-71
2023/03/16 00:19:56;;;;;;;5.47;2.20;;;7.90;99.90;;;;;;5004504;28;20483;-71
2023/03/16 00:22:23;;;;;;;4.30;3.00;;;7.80;99.90;;;;;;5014861;28;20457;-71
2023/03/16 00:24:51;;;;;;;5.33;2.73;;;7.80;99.90;;;;;;5014771;28;20527;-71
2023/03/16 00:27:17;;;;;;;6.40;2.57;;;7.80;99.90;;;;;;5014644;28;20399;-71
2023/03/16 00:29:48;;;;;;;4.00;2.57;;;7.80;99.90;;;;;;5031442;28;20469;-71
2023/03/16 00:32:18;;;;;;;5.37;3.00;;;7.80;99.90;;;;;;5014585;28;20784;-71
2023/03/16 00:34:45;;;;;;;4.73;2.67;;;7.80;99.90;;;;;;5014539;28;20407;-71
2023/03/16 00:37:14;;;;;;;5.70;2.40;;;7.70;99.90;;;;;;5014577;28;20428;-71
2023/03/16 00:39:41;;;;;;;3.63;2.27;;;7.70;99.90;;;;;;4996584;28;20435;-71
2023/03/16 00:42:08;;;;;;;4.70;3.20;;;7.70;99.90;;;;;;5030656;28;20492;-71
2023/03/16 00:44:37;;;;;;;3.00;2.47;;;7.80;99.90;;;;;;5014467;28;20416;-71
2023/03/16 00:47:05;;;;;;;4.70;2.73;;;7.70;99.90;;;;;;4998279;28;20429;-71
2023/03/16 00:49:35;;;;;;;6.80;2.83;;;7.70;99.90;;;;;;5030748;28;20439;-71
2023/03/16 00:52:05;;;;;;;4.20;2.43;;;7.70;99.90;;;;;;5030632;28;20443;-71
2023/03/16 00:54:33;;;;;;;4.47;3.10;;;7.70;99.90;;;;;;4998338;28;20435;-71
2023/03/16 00:57:04;;;;;;;4.90;2.80;;;7.70;99.90;;;;;;4998506;28;20427;-71
2023/03/16 00:59:30;;;;;;;4.03;3.00;;;7.70;99.90;;;;;;4997705;28;20442;-71
2023/03/16 01:01:56;;;;;;;3.50;3.00;;;7.70;99.90;;;;;;4997504;28;20470;-71
2023/03/16 01:04:22;;;;;;;3.60;2.87;;;7.70;99.90;;;;;;5014196;28;20218;-71
2023/03/16 01:06:48;;;;;;;5.30;2.70;;;7.70;99.90;;;;;;4997587;28;20453;-71
2023/03/16 01:09:15;;;;;;;3.73;2.67;;;7.70;99.90;;;;;;5030348;28;20453;-71
2023/03/16 01:11:43;;;;;;;4.93;3.17;;;7.60;99.90;;;;;;5030239;28;20971;-71
2023/03/16 01:14:14;;;;;;;4.77;3.50;;;7.70;99.90;;;;;;4997576;28;20423;-71
2023/03/16 01:16:44;;;;;;;4.63;3.07;;;7.60;99.90;;;;;;5030423;28;20466;-71
2023/03/16 01:19:11;;;;;;;2.83;2.60;;;7.60;99.90;;;;;;5014729;28;20442;-70
2023/03/16 01:21:39;;;;;;;3.47;2.60;;;7.60;99.90;;;;;;5013463;28;20550;-71
2023/03/16 01:24:05;;;;;;;5.27;3.13;;;7.60;99.90;;;;;;5013536;28;20443;-71
2023/03/16 01:26:31;;;;;;;3.50;3.00;;;7.60;99.90;;;;;;5013706;28;20438;-71
2023/03/16 01:28:57;;;;;;;4.40;2.83;;;7.60;99.90;;;;;;5010030;28;20448;-70
2023/03/16 01:31:26;;;;;;;4.40;3.03;;;7.60;99.90;;;;;;5026781;28;20395;-70
2023/03/16 01:33:53;;;;;;;6.40;3.20;;;7.60;99.90;;;;;;5110076;22;20880;-72
2023/03/16 01:36:25;;;;;;;3.50;2.70;;;7.60;99.90;;;;;;5020110;28;20500;-71
2023/03/16 01:38:59;;;;;;;4.27;2.67;;;7.60;99.90;;;;;;5054039;28;20429;-71
2023/03/16 01:41:31;;;;;;;3.77;2.80;;;7.50;99.90;;;;;;5003863;28;20477;-71
2023/03/16 01:43:57;;;;;;;7.30;3.23;;;7.50;99.90;;;;;;5019877;28;20407;-71
2023/03/16 01:46:28;;;;;;;3.10;2.80;;;7.50;99.90;;;;;;5036802;28;20460;-71
2023/03/16 01:49:09;;;;;;;6.23;3.37;;;7.50;99.90;;;;;;5036211;28;20429;-71
2023/03/16 01:51:52;;;;;;;6.27;2.77;;;7.60;99.90;;;;;;5019728;28;20968;-71
2023/03/16 01:54:33;;;;;;;3.00;2.60;;;7.50;99.90;;;;;;5019909;28;20521;-71
2023/03/16 01:57:08;;;;;;;4.10;2.97;;;7.50;99.90;;;;;;5019936;28;20433;-71
2023/03/16 01:59:41;;;;;;;3.00;2.70;;;7.50;99.90;;;;;;5035922;28;20791;-71
2023/03/16 02:02:12;;;;;;;4.30;2.97;;;7.50;99.90;;;;;;5018778;28;20498;-71
2023/03/16 02:04:48;;;;;;;3.77;3.10;;;7.50;99.90;;;;;;5035932;28;20411;-72
2023/03/16 02:07:19;;;;;;;4.70;2.77;;;7.50;99.90;;;;;;5019422;28;21047;-71
2023/03/16 02:09:49;;;;;;;2.80;2.40;;;7.50;99.90;;;;;;5035704;28;20456;-71
2023/03/16 02:12:19;;;;;;;4.30;2.47;;;7.50;99.90;;;;;;5019303;28;20429;-71
2023/03/16 02:14:51;;;;;;;4.43;3.00;;;7.40;99.90;;;;;;5035763;28;20499;-71
2023/03/16 02:17:25;;;;;;;5.90;2.57;;;7.40;99.90;;;;;;5019504;28;20919;-71
2023/03/16 02:20:01;;;;;;;6.47;4.00;;;7.40;99.90;;;;;;5019669;28;20553;-71
2023/03/16 02:22:27;;;;;;;4.87;2.87;;;7.50;99.90;;;;;;5019373;28;20906;-71
2023/03/16 02:24:56;;;;;;;4.97;2.57;;;7.40;99.90;;;;;;5019271;28;20473;-71
2023/03/16 02:27:45;;;;;;;2.87;2.40;;;7.40;99.90;;;;;;5019223;28;20397;-71
2023/03/16 02:30:17;;;;;;;2.57;2.27;;;7.40;99.90;;;;;;5009107;28;20460;-71
2023/03/16 02:33:04;;;;;;;3.20;2.40;;;7.40;99.90;;;;;;5019100;28;20569;-71
2023/03/16 02:35:31;;;;;;;3.33;2.50;;;7.40;99.90;;;;;;5018982;28;20490;-71
2023/03/16 02:37:57;;;;;;;4.27;2.33;;;7.40;99.90;;;;;;5019570;28;20412;-71
2023/03/16 02:40:31;;;;;;;6.13;2.63;;;7.40;99.90;;;;;;5018846;28;20449;-71
2023/03/16 02:43:05;;;;;;;6.17;2.77;;;7.40;99.90;;;;;;5003224;28;20504;-71
2023/03/16 02:45:48;;;;;;;3.57;2.60;;;7.40;99.90;;;;;;5035253;28;20547;-71
2023/03/16 02:48:26;;;;;;;5.67;3.10;;;7.40;99.90;;;;;;5018614;28;20409;-71
2023/03/16 02:50:57;;;;;;;4.23;2.30;;;7.40;99.90;;;;;;5035086;28;20438;-71
2023/03/16 02:53:25;;;;;;;2.90;2.33;;;7.40;99.90;;;;;;5018406;28;20421;-71
2023/03/16 02:55:51;;;;;;;3.63;2.57;;;7.40;99.90;;;;;;5018736;28;20440;-71
2023/03/16 02:58:20;;;;;;;2.87;2.50;;;7.40;99.90;;;;;;5002560;28;20442;-71
2023/03/16 03:00:49;;;;;;;4.70;2.40;;;7.40;99.90;;;;;;5018968;28;20908;-72
2023/03/16 03:03:16;;;;;;;3.20;2.27;;;7.40;99.90;;;;;;5004413;28;20449;-72
2023/03/16 03:05:42;;;;;;;4.60;2.27;;;7.40;99.90;;;;;;5039385;28;20979;-72
2023/03/16 03:08:10;;;;;;;5.80;2.73;;;7.30;99.90;;;;;;5006395;28;20417;-72
2023/03/16 03:10:37;;;;;;;3.77;2.60;;;7.30;99.90;;;;;;5022841;28;20420;-72
2023/03/16 03:13:08;;;;;;;3.40;2.57;;;7.30;99.90;;;;;;5039396;28;20435;-72
2023/03/16 03:15:37;;;;;;;5.20;2.30;;;7.30;99.90;;;;;;5039195;28;20859;-73
2023/03/16 03:18:07;;;;;;;4.73;2.63;;;7.30;99.90;;;;;;5006698;28;20951;-72
2023/03/16 03:20:36;;;;;;;2.70;2.40;;;7.30;99.90;;;;;;5039021;28;20490;-72
2023/03/16 03:23:05;;;;;;;3.10;2.80;;;7.30;99.80;;;;;;5056666;28;20495;-72
2023/03/16 03:25:33;;;;;;;4.27;2.67;;;7.30;99.80;;;;;;5056605;28;20427;-72
2023/03/16 03:28:01;;;;;;;3.93;2.27;;;7.30;99.80;;;;;;5006352;28;20501;-71
2023/03/16 03:30:27;;;;;;;4.07;2.50;;;7.30;99.80;;;;;;5006120;28;20490;-72
2023/03/16 03:32:53;;;;;;;3.80;2.93;;;7.30;99.70;;;;;;5005997;28;20939;-72
2023/03/16 03:35:23;;;;;;;2.90;2.33;;;7.30;99.70;;;;;;5056458;28;20467;-71
2023/03/16 03:37:52;;;;;;;3.00;2.40;;;7.30;99.90;;;;;;5038750;28;20434;-72
2023/03/16 03:40:22;;;;;;;2.10;1.90;;;7.20;99.60;;;;;;5038546;28;20834;-72
2023/03/16 03:42:55;;;;;;;4.40;2.60;;;7.20;99.60;;;;;;5038607;28;20422;-72
2023/03/16 03:45:22;;;;;;;4.83;2.67;;;7.20;99.60;;;;;;5022280;28;20414;-72
2023/03/16 03:47:51;;;;;;;3.20;2.10;;;7.30;99.60;;;;;;5022106;28;20563;-72
2023/03/16 03:50:20;;;;;;;2.90;2.40;;;7.20;99.60;;;;;;5038390;28;20894;-72
2023/03/16 03:53:05;;;;;;;5.57;2.87;;;7.20;99.60;;;;;;5024405;28;20409;-72
2023/03/16 03:55:41;;;;;;;4.53;2.50;;;7.20;99.60;;;;;;5039423;28;20443;-72
2023/03/16 03:58:07;;;;;;;2.87;2.07;;;7.20;99.60;;;;;;5056126;28;20396;-72
2023/03/16 04:00:37;;;;;;;3.60;2.47;;;7.20;99.60;;;;;;5021899;28;20796;-72
2023/03/16 04:03:04;;;;;;;2.77;2.30;;;7.20;99.70;;;;;;5038098;28;20516;-71
2023/03/16 04:05:38;;;;;;;3.60;2.20;;;7.20;99.60;;;;;;5006396;28;20417;-72
2023/03/16 04:08:05;;;;;;;3.78;2.47;;;7.20;99.60;;;;;;5021633;28;20447;-72
2023/03/16 04:10:33;;;;;;;4.73;2.60;;;7.20;99.60;;;;;;5038095;28;20246;-72
2023/03/16 04:12:59;;;;;;;3.77;2.37;;;7.20;99.60;;;;;;5038036;28;20451;-72
2023/03/16 04:15:34;;;;;;;3.42;2.20;;;7.20;99.60;;;;;;5036847;28;20492;-72
2023/03/16 04:18:11;;;;;;;3.17;2.57;;;7.20;99.60;;;;;;5037973;28;20536;-71
2023/03/16 04:20:38;;;;;;;4.00;2.47;;;7.20;99.60;;;;;;5037884;28;20515;-72
2023/03/16 04:23:07;;;;;;;3.33;2.60;;;7.20;99.60;;;;;;5021622;28;20438;-72
2023/03/16 04:25:37;;;;;;;3.90;2.50;;;7.20;99.60;;;;;;5021196;28;20467;-72
2023/03/16 04:28:04;;;;;;;3.92;2.50;;;7.20;99.60;;;;;;5021125;28;20409;-72
2023/03/16 04:30:35;;;;;;;4.60;2.90;;;7.20;99.60;;;;;;5037483;28;20173;-72
2023/03/16 04:33:11;;;;;;;3.67;2.50;;;7.20;99.60;;;;;;5037662;28;20432;-72
2023/03/16 04:35:37;;;;;;;3.80;2.50;;;7.20;99.60;;;;;;5021285;28;20448;-72
2023/03/16 04:38:03;;;;;;;7.43;2.37;;;7.10;99.60;;;;;;5021189;28;20464;-72
2023/03/16 04:40:38;;;;;;;4.47;2.60;;;7.10;99.60;;;;;;5037416;28;20498;-72
2023/03/16 04:43:13;;;;;;;5.23;3.40;;;7.20;99.60;;;;;;5037546;28;20825;-72
2023/03/16 04:45:40;;;;;;;3.23;2.53;;;7.20;99.60;;;;;;5036869;28;20392;-72
2023/03/16 04:48:06;;;;;;;2.80;2.40;;;7.10;99.60;;;;;;5037472;28;20757;-72
2023/03/16 04:50:32;;;;;;;2.90;2.40;;;7.10;99.60;;;;;;5037114;28;20489;-72
2023/03/16 04:52:59;;;;;;;3.83;2.67;;;7.10;99.60;;;;;;5020506;28;20394;-72
2023/03/16 04:55:26;;;;;;;6.33;3.03;;;7.10;99.90;;;;;;5020886;28;20214;-72
2023/03/16 04:57:54;;;;;;;4.10;2.40;;;7.10;99.70;;;;;;5037383;28;20527;-72
2023/03/16 05:00:22;;;;;;;3.37;2.33;;;7.10;99.70;;;;;;5004637;28;20487;-73
2023/03/16 05:03:09;;;;;;;5.00;2.83;;;7.10;99.70;;;;;;5037120;28;20479;-72
2023/03/16 05:05:38;;;;;;;5.83;3.00;;;7.10;99.70;;;;;;5020960;28;20469;-73
2023/03/16 05:08:06;;;;;;;6.07;3.10;;;7.10;99.60;;;;;;5020591;28;20475;-72
2023/03/16 05:10:34;;;;;;;3.60;2.73;;;7.10;99.60;;;;;;5020685;28;20493;-72
2023/03/16 05:13:03;;;;;;;5.30;2.80;;;7.10;99.60;;;;;;5036957;28;20412;-72
2023/03/16 05:15:29;;;;;;;4.30;3.00;;;7.10;99.60;;;;;;5036967;28;20409;-72
2023/03/16 05:18:15;;;;;;;5.33;3.03;;;7.10;99.60;;;;;;5054248;28;20430;-72
2023/03/16 05:20:46;;;;;;;5.73;3.07;;;7.10;99.60;;;;;;5036836;28;21032;-72
2023/03/16 05:23:12;;;;;;;4.67;2.87;;;7.10;99.60;;;;;;5036794;28;20416;-72
2023/03/16 05:25:47;;;;;;;6.27;3.93;;;7.10;99.60;;;;;;5036517;28;20410;-72
2023/03/16 05:28:14;;;;;;;4.50;2.40;;;7.10;99.70;;;;;;5020172;28;20421;-72
2023/03/16 05:30:51;;;;;;;5.37;3.10;;;7.10;99.60;;;;;;5020156;28;20444;-72
2023/03/16 05:33:22;;;;;;;4.77;3.10;;;7.10;99.70;;;;;;5036636;28;20420;-72
2023/03/16 05:35:52;;;;;;;5.53;3.20;;;7.10;99.70;;;;;;5004521;28;20441;-72
2023/03/16 05:38:18;;;;;;;3.37;2.90;;;7.10;99.60;;;;;;5019579;28;20763;-72
2023/03/16 05:40:45;;;;;;;4.40;3.17;;;7.10;99.60;;;;;;5018433;28;21045;-72
2023/03/16 05:43:25;;;;;;;3.93;3.17;;;7.10;99.70;;;;;;5033972;28;20464;-74
2023/03/16 05:45:54;;;;;;;6.20;3.20;;;7.10;99.70;;;;;;4999994;28;20499;-74
2023/03/16 05:48:21;;;;;;;4.32;3.30;;;7.10;99.70;;;;;;4999770;28;20496;-75
2023/03/16 05:50:52;;;;;;;4.00;2.85;;;7.10;99.70;;;;;;5000184;28;20234;-72
2023/03/16 05:53:27;;;;;;;3.80;2.93;;;7.10;99.70;;;;;;5000165;28;20217;-73
2023/03/16 05:55:54;;;;;;;3.97;3.30;;;7.10;99.70;;;;;;5016360;28;20494;-74
2023/03/16 05:58:20;;;;;;;4.40;3.60;;;7.10;99.70;;;;;;5016460;28;20171;-73
2023/03/16 06:00:54;;;;;;;7.00;3.70;;;7.10;99.70;;;;;;4984930;28;20213;-72
2023/03/16 06:03:25;;;;;;;5.50;3.30;;;7.10;99.70;;;;;;5000068;28;20171;-73
2023/03/16 06:05:56;;;;;;;5.88;3.70;;;7.10;99.70;;;;;;5015774;28;20474;-73
2023/03/16 06:08:28;;;;;;;4.40;2.97;;;7.10;99.70;;;;;;4984471;28;20204;-73
2023/03/16 06:11:00;;;;;;;4.00;3.33;;;7.10;99.80;;;;;;4999938;28;20177;-72
2023/03/16 06:13:30;;;;;;;4.80;3.50;;;7.10;99.80;;;;;;5016054;28;20796;-72
2023/03/16 06:16:01;;;;;;;5.45;3.63;;;7.10;99.80;;;;;;4999868;28;20185;-72
2023/03/16 06:18:30;;;;;;;3.53;3.23;;;7.10;99.80;;;;;;4983612;28;20221;-72
2023/03/16 06:20:56;;;;;;;5.75;3.13;;;7.10;99.80;;;;;;5033438;28;20511;-72
2023/03/16 06:23:26;;;;;;;4.30;3.55;;;7.10;99.80;;;;;;5015773;28;20202;-72
2023/03/16 06:25:54;;;;;;;3.90;3.30;;;7.10;99.80;;;;;;4999722;28;20200;-72
2023/03/16 06:28:24;;;;;;;4.60;3.30;;;7.10;99.80;;;;;;4999347;28;20538;-73
2023/03/16 06:30:55;;;;;;;4.97;3.47;;;7.10;99.80;;;;;;5015604;28;20586;-74
2023/03/16 06:33:24;;;;;;;8.18;4.22;;;7.10;99.80;;;;;;5015570;28;20451;-73
2023/03/16 06:35:50;;;;;;;10.68;4.35;;;7.10;99.90;;;;;;4999500;28;20210;-72
2023/03/16 06:38:25;;;;;;;5.50;3.97;;;7.10;99.80;;;;;;5014857;28;20185;-72
2023/03/16 06:41:12;;;;;;;6.03;3.50;;;7.10;99.90;;;;;;5015332;28;20271;-72
2023/03/16 06:43:41;;;;;;;7.47;4.40;;;7.10;99.90;;;;;;5015936;28;20890;-72
2023/03/16 06:46:08;;;;;;;4.78;3.90;;;7.10;99.90;;;;;;5015669;28;20408;-72
2023/03/16 06:48:34;;;;;;;5.63;3.80;;;7.00;99.90;;;;;;5015514;28;20202;-72
2023/03/16 06:51:00;;;;;;;3.90;3.50;;;7.00;99.90;;;;;;5015603;28;20170;-72
2023/03/16 06:53:28;;;;;;;4.80;4.35;;;7.10;99.90;;;;;;5015565;28;20208;-72
2023/03/16 06:55:58;;;;;;;6.03;3.80;;;7.00;99.80;;;;;;4999351;28;20178;-72
2023/03/16 06:58:29;;;;;;;4.63;3.93;;;7.10;99.90;;;;;;5016026;28;20442;-72
2023/03/16 07:01:02;;;;;;;5.70;3.88;;;7.10;99.90;;;;;;5015484;28;20465;-73
2023/03/16 07:03:28;;;;;;;3.80;3.37;;;7.00;99.80;;;;;;4998767;28;20178;-72
2023/03/16 07:06:02;;;;;;;5.63;4.40;;;7.00;99.80;;;;;;4999840;28;20448;-73
2023/03/16 07:08:28;;;;;;;5.38;4.10;;;7.10;99.80;;;;;;4999227;28;20452;-72
2023/03/16 07:10:54;;;;;;;6.95;3.90;;;7.10;99.80;;;;;;5015349;28;20187;-72
2023/03/16 07:13:22;;;;;;;4.95;4.03;;;7.10;99.80;;;;;;5032929;28;20570;-72
2023/03/16 07:15:51;;;;;;;4.57;3.57;;;7.10;99.80;;;;;;4998949;28;20186;-72
2023/03/16 07:18:20;;;;;;;4.60;3.50;;;7.10;99.70;;;;;;4999161;28;20446;-73
2023/03/16 07:20:49;;;;;;;5.15;4.20;;;7.10;99.80;;;;;;5015133;28;20553;-72
2023/03/16 07:23:15;;;;;;;4.47;3.70;;;7.10;99.70;;;;;;4998547;28;20603;-72
2023/03/16 07:25:44;;;;;;;7.78;3.55;;;7.10;99.70;;;;;;5015270;28;20465;-72
2023/03/16 07:28:11;;;;;;;6.32;3.67;;;7.10;99.70;;;;;;5015096;28;20167;-72
2023/03/16 07:30:44;;;;;;;6.75;4.13;;;7.10;99.70;;;;;;5015217;28;20212;-72
2023/03/16 07:33:13;;;;;;;5.25;3.47;;;7.10;99.70;;;;;;4998830;28;20198;-72
2023/03/16 07:35:39;;;;;;;4.35;3.38;;;7.10;99.70;;;;;;5003763;28;20196;-73
2023/03/16 07:38:09;;;;;;;6.07;3.80;;;7.10;99.90;;;;;;5012880;28;20195;-71
2023/03/16 07:40:38;;;;;;;4.55;3.70;;;7.10;99.70;;;;;;5033710;28;20452;-71
2023/03/16 07:43:13;;;;;;;4.80;3.87;;;7.10;99.60;;;;;;5051103;28;20563;-71
2023/03/16 07:45:51;;;;;;;4.63;3.77;;;7.10;99.90;;;;;;5032701;28;20426;-71
2023/03/16 07:48:23;;;;;;;5.60;4.40;;;7.10;99.60;;;;;;5007782;28;20437;-71
2023/03/16 07:50:53;;;;;;;4.25;3.78;;;7.10;99.60;;;;;;5016968;28;20419;-71
2023/03/16 07:53:24;;;;;;;5.30;3.90;;;7.10;99.50;;;;;;5018008;28;20183;-70
2023/03/16 07:56:01;;;;;;;3.78;3.33;;;7.10;99.60;;;;;;5002652;28;20428;-70
2023/03/16 07:58:35;;;;;;;4.30;3.20;;;7.10;99.50;;;;;;5033910;28;20209;-70
2023/03/16 08:01:01;;;;;;;6.10;3.80;;;7.10;99.60;;;;;;5001108;28;20634;-70
2023/03/16 08:03:28;;;;;;;3.63;3.20;;;7.10;99.70;;;;;;5036744;28;20213;-71
2023/03/16 08:05:54;;;;;;;6.40;3.80;;;7.10;99.70;;;;;;5037060;28;20263;-71
2023/03/16 08:08:21;;;;;;;5.07;3.80;;;7.10;99.70;;;;;;5020370;28;20502;-72
2023/03/16 08:10:51;;;;;;;6.73;3.67;;;7.10;99.70;;;;;;5020163;28;20452;-70
2023/03/16 08:13:21;;;;;;;6.63;3.75;;;7.10;99.70;;;;;;5020354;28;20979;-69
2023/03/16 08:16:00;;;;;;;5.30;3.50;;;7.10;99.70;;;;;;5036428;28;20185;-70
2023/03/16 08:18:35;;;;;;;5.13;3.45;;;7.10;99.70;;;;;;5004966;28;20496;-70
2023/03/16 08:21:04;;;;;;;7.22;3.75;;;7.10;99.70;;;;;;5016963;28;20618;-70
2023/03/16 08:23:33;;;;;;;6.72;4.20;;;7.10;99.70;;;;;;5019643;28;20651;-69
2023/03/16 08:26:00;;;;;;;4.85;3.78;;;7.10;99.80;;;;;;5019922;28;20204;-70
2023/03/16 08:28:30;;;;;;;4.88;4.13;;;7.10;99.80;;;;;;5020210;28;20213;-70
2023/03/16 08:31:00;;;;;;;5.87;3.90;;;7.10;99.70;;;;;;5018698;28;20214;-70
2023/03/16 08:33:44;;;;;;;4.90;3.70;;;7.10;99.80;;;;;;4985947;28;20537;-69
2023/03/16 08:36:14;;;;;;;4.97;4.43;;;7.20;99.80;;;;;;5008620;28;20479;-70
2023/03/16 08:38:45;;;;;;;5.90;4.28;;;7.10;99.80;;;;;;5019934;28;20576;-70
2023/03/16 08:41:12;;;;;;;9.60;4.27;;;7.10;99.80;;;;;;4999883;28;20206;-70
2023/03/16 08:43:41;;;;;;;4.77;4.33;;;7.20;99.90;;;;;;5020046;28;20449;-70
2023/03/16 08:46:07;;;;;;;4.67;3.73;;;7.20;99.90;;;;;;5019650;28;20495;-70
2023/03/16 08:48:49;;;;;;;5.40;4.03;;;7.20;99.90;;;;;;5036001;28;20443;-70
2023/03/16 08:51:16;;;;;;;4.43;3.80;;;7.20;99.90;;;;;;5019229;28;20411;-70
2023/03/16 08:53:45;;;;;;;5.07;3.60;;;7.20;99.90;;;;;;5036019;28;21015;-71
2023/03/16 08:56:15;;;;;;;5.40;3.50;;;7.20;99.90;;;;;;5036178;28;20201;-71
2023/03/16 08:58:44;;;;;;;7.20;3.63;;;7.20;99.90;;;;;;5053449;28;20459;-70
2023/03/16 09:01:14;;;;;;;4.65;3.85;;;7.20;99.90;;;;;;5034496;28;20272;-70
2023/03/16 09:03:44;;;;;;;4.50;4.10;;;7.20;99.90;;;;;;5053781;28;20170;-71
2023/03/16 09:06:14;;;;;;;3.90;3.50;;;7.20;99.90;;;;;;5053488;28;20476;-70
2023/03/16 09:08:43;;;;;;;5.80;4.20;;;7.20;99.90;;;;;;5052097;28;20459;-71
2023/03/16 09:11:11;;;;;;;4.87;3.93;;;7.20;99.90;;;;;;5034628;28;20478;-70
2023/03/16 09:13:44;;;;;;;5.43;3.80;;;7.20;99.90;;;;;;5052206;28;20933;-70
2023/03/16 09:16:17;;;;;;;4.60;3.43;;;7.20;99.90;;;;;;5019572;28;20814;-71
2023/03/16 09:18:43;;;;;;;4.37;3.97;;;7.20;99.90;;;;;;5018992;28;20968;-70
2023/03/16 09:21:12;;;;;;;5.40;4.10;;;7.20;99.90;;;;;;5034803;28;20461;-71
2023/03/16 09:23:41;;;;;;;5.40;4.00;;;7.20;99.90;;;;;;5018949;28;20466;-70
2023/03/16 09:26:08;;;;;;;4.90;4.40;;;7.20;99.90;;;;;;5035159;28;20423;-71
2023/03/16 09:28:40;;;;;;;4.30;3.70;;;7.20;99.90;;;;;;5013210;28;20483;-71
2023/03/16 09:31:08;;;;;;;6.55;4.00;;;7.30;99.90;;;;;;5053225;28;20492;-70
2023/03/16 09:33:38;;;;;;;5.78;3.83;;;7.30;99.90;;;;;;5051064;28;20679;-70
2023/03/16 09:36:05;;;;;;;5.80;3.53;;;7.30;99.90;;;;;;5052865;28;20161;-70
2023/03/16 09:38:33;;;;;;;4.63;3.80;;;7.30;99.90;;;;;;5034812;28;20459;-70
2023/03/16 09:41:17;;;;;;;6.00;3.63;;;7.30;99.90;;;;;;5052710;28;20792;-70
2023/03/16 09:43:58;;;;;;;4.35;3.95;;;7.30;99.90;;;;;;5054028;28;20421;-70
2023/03/16 09:46:33;;;;;;;5.65;4.13;;;7.30;99.90;;;;;;5036401;28;20204;-70
2023/03/16 09:48:59;;;;;;;5.65;4.05;;;7.30;99.90;;;;;;5035994;28;20212;-70
2023/03/16 09:51:56;;;;;;;5.07;3.90;;;7.30;99.90;;;;;;5035778;28;20197;-70
2023/03/16 09:54:59;;;;;;;6.93;4.00;;;7.30;99.90;;;;;;5017972;28;20420;-70
2023/03/16 09:57:34;;;;;;;4.80;4.00;;;7.30;99.90;;;;;;4951996;29;20464;-70
2023/03/16 10:00:16;;;;;;;4.50;3.30;;;7.40;99.90;;;;;;5005096;28;20460;-70
2023/03/16 10:03:07;;;;;;;5.97;3.87;;;7.40;99.90;;;;;;5050851;28;20170;-70
2023/03/16 10:05:34;;;;;;;5.47;3.90;;;7.40;99.90;;;;;;5018936;28;20417;-70
2023/03/16 10:08:12;;;;;;;4.37;3.37;;;7.40;99.90;;;;;;5035791;28;20462;-70
2023/03/16 10:10:41;;;;;;;6.40;4.30;;;7.40;99.90;;;;;;5019341;28;20445;-70
2023/03/16 10:13:37;;;;;;;4.87;3.80;;;7.50;99.90;;;;;;5019287;28;20453;-70
2023/03/16 10:16:22;;;;;;;5.88;4.03;;;7.40;99.90;;;;;;5042512;28;20839;-70
2023/03/16 10:18:52;;;;;;;7.17;3.63;;;7.50;99.90;;;;;;5052902;28;20210;-70
2023/03/16 10:21:19;;;;;;;4.07;3.45;;;7.50;99.90;;;;;;5035316;28;21051;-70
2023/03/16 10:23:48;;;;;;;5.23;3.50;;;7.50;99.90;;;;;;5034903;28;20185;-70
2023/03/16 10:26:26;;;;;;;6.40;3.90;;;7.50;99.90;;;;;;5035085;28;20409;-70
2023/03/16 10:28:59;;;;;;;5.60;4.30;;;7.50;99.90;;;;;;5019096;28;20457;-71
2023/03/16 10:31:27;;;;;;;6.07;3.93;;;7.50;99.90;;;;;;5034092;28;20436;-71
2023/03/16 10:34:04;;;;;;;4.50;3.57;;;7.50;99.90;;;;;;5052936;28;20529;-71
2023/03/16 10:36:34;;;;;;;5.90;3.73;;;7.60;99.90;;;;;;5001733;28;20929;-72
2023/03/16 10:39:07;;;;;;;4.60;3.70;;;7.60;99.90;;;;;;5034910;28;20464;-70
2023/03/16 10:41:36;;;;;;;4.13;3.10;;;7.60;99.90;;;;;;5034426;28;20518;-70
2023/03/16 10:44:13;;;;;;;4.40;3.63;;;7.60;99.90;;;;;;5034538;28;20451;-70
2023/03/16 10:46:56;;;;;;;4.33;3.40;;;7.60;99.90;;;;;;5025684;28;20550;-70
2023/03/16 10:49:28;;;;;;;4.70;3.67;;;7.60;99.90;;;;;;5017881;28;20541;-71
2023/03/16 10:51:58;;;;;;;6.17;3.73;;;7.70;99.90;;;;;;5034089;28;20427;-70
2023/03/16 10:54:36;;;;;;;3.97;3.27;;;7.70;99.90;;;;;;5034436;28;20831;-70
2023/03/16 10:57:25;;;;;;;4.63;3.60;;;7.70;99.90;;;;;;5017491;28;20467;-70
2023/03/16 10:59:56;;;;;;;3.70;3.33;;;7.80;99.90;;;;;;5033670;28;20449;-70
2023/03/16 11:02:29;;;;;;;3.93;3.00;;;7.80;99.90;;;;;;5015851;28;20480;-70
2023/03/16 11:04:58;;;;;;;5.63;3.93;;;7.80;99.90;;;;;;5051232;28;20451;-70
2023/03/16 11:07:24;;;;;;;4.67;3.60;;;7.80;99.90;;;;;;5032534;28;20493;-70
2023/03/16 11:09:58;;;;;;;5.00;3.60;;;7.90;99.90;;;;;;5033657;28;20971;-70
2023/03/16 11:12:29;;;;;;;4.70;3.70;;;7.80;99.90;;;;;;5010974;28;20460;-70
2023/03/16 11:15:03;;;;;;;4.97;2.83;;;7.90;99.90;;;;;;5017354;28;20452;-70
2023/03/16 11:17:59;;;;;;;4.37;3.30;;;7.90;99.90;;;;;;4997928;28;20884;-70
2023/03/16 11:20:31;;;;;;;5.30;3.80;;;7.90;99.90;;;;;;5014140;28;20509;-70
2023/03/16 11:22:59;;;;;;;4.63;3.53;;;8.00;99.90;;;;;;5051169;28;20440;-71
2023/03/16 11:25:44;;;;;;;4.60;3.37;;;8.00;99.90;;;;;;5017924;28;20457;-71
2023/03/16 11:28:40;;;;;;;5.57;4.10;;;8.00;99.90;;;;;;5037506;28;20535;-70
2023/03/16 11:31:26;;;;;;;5.40;3.33;;;8.10;99.90;;;;;;5038961;28;20433;-70
2023/03/16 11:33:56;;;;;;;4.30;3.20;;;8.10;99.90;;;;;;5038379;28;20929;-70
2023/03/16 11:36:30;;;;;;;5.27;3.23;;;8.10;99.90;;;;;;5021961;28;20421;-70
2023/03/16 11:39:03;;;;;;;6.20;3.90;;;8.10;99.90;;;;;;5021477;28;20460;-70
2023/03/16 11:41:42;;;;;;;4.20;3.30;;;8.20;99.90;;;;;;5037894;28;21000;-70
2023/03/16 11:44:35;;;;;;;4.07;3.60;;;8.20;99.90;;;;;;5038103;28;20398;-70
2023/03/16 11:47:20;;;;;;;3.87;3.47;;;8.30;99.90;;;;;;5021604;28;20469;-70
2023/03/16 11:50:15;;;;;;;4.27;2.93;;;8.30;99.90;;;;;;5055602;28;20437;-70
2023/03/16 11:52:57;;;;;;;4.10;2.87;;;8.30;99.90;;;;;;5019516;28;20998;-70
2023/03/16 11:55:44;;;;;;;4.30;3.00;;;8.40;99.90;;;;;;5038264;28;20413;-71
2023/03/16 11:58:28;;;;;;;4.00;3.17;;;8.40;99.80;;;;;;5037916;28;20937;-70
2023/03/16 12:01:13;;;;;;;3.73;2.93;;;8.40;99.80;;;;;;5002384;28;20446;-70
2023/03/16 12:03:57;;;;;;;3.40;2.70;;;8.50;99.80;;;;;;5001756;28;20442;-69
2023/03/16 12:06:52;;;;;;;3.77;2.83;;;8.50;99.70;;;;;;5002164;28;20426;-69
2023/03/16 12:09:59;;;;;;;3.00;2.57;;;8.60;99.70;;;;;;5018096;28;20447;-70
2023/03/16 12:12:47;;;;;;;3.77;2.50;;;8.60;99.60;;;;;;5010877;28;20939;-70
2023/03/16 12:15:43;;;;;;;2.80;2.50;;;8.60;99.50;;;;;;5002530;28;20863;-70
2023/03/16 12:18:32;;;;;;;3.60;2.50;;;8.60;99.40;;;;;;5033501;28;20462;-70
2023/03/16 12:21:11;;;;;;;2.63;2.27;;;8.60;99.30;;;;;;5021315;28;20465;-70
2023/03/16 12:23:47;;;;;;;3.33;3.00;;;8.60;99.30;;;;;;5037774;28;20850;-70
2023/03/16 12:26:14;;;;;;;2.60;2.37;;;8.70;99.30;;;;;;5021147;28;20447;-70
2023/03/16 12:28:41;;;;;;;3.70;2.63;;;8.70;99.40;;;;;;5037370;28;20466;-70
2023/03/16 12:31:21;;;;;;;3.20;2.47;;;8.70;99.40;;;;;;5054946;28;20425;-70
2023/03/16 12:34:12;;;;;;;2.93;2.53;;;8.70;99.40;;;;;;5054775;28;20442;-70
2023/03/16 12:36:47;;;;;;;3.97;2.53;;;8.80;99.30;;;;;;5018391;28;20451;-70
2023/03/16 12:39:39;;;;;;;3.50;2.70;;;8.80;99.30;;;;;;5017183;28;20467;-70
2023/03/16 12:42:41;;;;;;;4.07;2.60;;;8.80;99.30;;;;;;5000622;28;20561;-68
2023/03/16 12:45:16;;;;;;;7.93;2.47;;;8.80;99.30;;;;;;5019120;28;20446;-70
2023/03/16 12:47:47;;;;;;;3.20;2.43;;;8.80;99.20;;;;;;5034945;28;20422;-69
2023/03/16 12:50:16;;;;;;;2.90;2.33;;;8.80;99.30;;;;;;5054641;28;20441;-70
2023/03/16 12:52:50;;;;;;;3.30;2.40;;;8.90;99.30;;;;;;5020982;28;20415;-70
2023/03/16 12:55:26;;;;;;;2.20;2.00;;;8.90;99.30;;;;;;5036612;28;20435;-70
2023/03/16 12:58:06;;;;;;;2.60;2.17;;;8.90;99.30;;;;;;5007175;28;20423;-70
2023/03/16 13:00:41;;;;;;;3.10;2.70;;;8.90;99.20;;;;;;5016841;28;20963;-70
2023/03/16 13:03:15;;;;;;;3.93;2.30;;;8.90;99.20;;;;;;5021896;28;20442;-70
2023/03/16 13:05:49;;;;;;;3.03;2.30;;;9.00;99.10;;;;;;5036922;28;20418;-70
2023/03/16 13:08:20;;;;;;;2.70;2.20;;;9.00;99.00;;;;;;5054089;28;20415;-70
2023/03/16 13:11:21;;;;;;;4.23;2.50;;;9.00;99.00;;;;;;5054234;28;20395;-70
2023/03/16 13:14:00;;;;;;;4.50;2.60;;;9.00;99.00;;;;;;4973404;28;20433;-70
2023/03/16 13:16:35;;;;;;;4.50;2.50;;;9.00;98.90;;;;;;5009902;28;20506;-70
2023/03/16 13:19:18;;;;;;;4.00;2.67;;;9.10;99.30;;;;;;5034140;28;20970;-70
2023/03/16 13:21:46;;;;;;;4.40;2.13;;;9.10;98.90;;;;;;5045021;28;20471;-70
2023/03/16 13:24:27;;;;;;;2.40;2.10;;;9.10;98.90;;;;;;5036404;28;20427;-70